Kenai, AK

6:44 PM AKDT on September 21, 2014 (GMT -0800)
Kenai Municipal | Change Station
CLOSE
Current Station
Airport
Location: Kenai,
Elevation: 95 ft
Nearby Weather Stations

Elev 95 ft 60.58 °N, 151.24 °W | Updated 51 minutes ago

Scattered Clouds
Scattered Clouds
51 °F
Feels Like 51 °F
N
0
Wind Variable Wind from North

Today
High -- | Low -- °F
--% Chance of Precip.
Yesterday
High -- | Low -- °F
Precip. -- in
7:47 AM 8:07 PM
Waning Crescent, 4% visible
Pressure 29.42 in
Visibility 10.0 miles
Clouds Few 3000 ft
Scattered Clouds 5000 ft
Dew Point 46 °F
Humidity 83%
Rainfall 0.00 in
Snow Depth 5 in , 1 in , 0 in
UV 1 out of 12
Pollen Not available.
Air Quality Not available.
Flu Activity Not available.
METAR PAEN 220153Z 00000KT 10SM FEW030 SCT050 11/08 A2941 RMK AO2 SLP961 T01060078

More Conditions Fewer Conditions

Pressure 29.42 in
Visibility 10.0 miles
Clouds Few 3000 ft
Scattered Clouds 5000 ft
Dew Point 46 °F
Humidity 83%
Rainfall 0.00 in
Snow Depth 5 in , 1 in , 0 in
UV 1 out of 12
Pollen Not available.
Air Quality Not available.
Flu Activity Not available.
METAR PAEN 220153Z 00000KT 10SM FEW030 SCT050 11/08 A2941 RMK AO2 SLP961 T01060078

More Conditions Fewer Conditions

10-Day Weather Forecast

Almanac

Astronomy

Sep. 21, 2014 Rise Set
Actual Time 7:47 AM AKDT 8:07 PM AKDT
Civil Twilight 7:04 AM AKDT 8:49 PM AKDT
Nautical Twilight 6:13 AM AKDT 9:40 PM AKDT
Astronomical Twilight 5:16 AM AKDT 10:36 PM AKDT
Moon 5:02 AM AKDT (9/21) 7:08 PM AKDT (9/21)
Length of Visible Light 13h 44m
Length of Day
12h 19m
Tomorrow will be 5m 31s shorter.
Waning Crescent, 4% of the Moon is Illuminated
Today
Waning Crescent
Sep 24
New
Oct 1
First Quarter
Oct 8
Full
Oct 15
Last Quarter

Today's Extremes

State Highs State Lows

Community

WunderPhotos

Upload Photos

1,755,371 photos uploaded!

WunderBlogs® & News

Nearby

Snow Depth

Station Depth Elevation
Imnaviat Creek 5 in 3050 ft
Munson Ridge 1 in 3100 ft
Fort Yukon 0 in 430 ft
Summit Creek 0 in 1400 ft
Coldfoot 1 in 1040 ft

Earthquake Activity

City Distance Mag. Time & Date
No recent earthquake activity has been reported nearby.
Minimum magnitude displayed is 2.5.

Coastal Water Temperatures

Place Temperature
No Stations Reporting

Nearby Weather Stations